Time;durP1;ratioP1;P1;durP2;ratioP2;P2;SDS_P1;SDS_P2;PMS_P1;PMS_P2;Temp;Humidity;BMP_temperature;BMP_pressure;BME280_temperature;BME280_humidity;BME280_pressure;Samples;Min_cycle;Max_cycle;Signal;HPM_P1;HPM_P2
2024/04/16 00:00:12;;;;;;;2.67;0.75;;;8.20;99.90;;;;;;5416432;26;20695;-74
2024/04/16 00:02:42;;;;;;;3.65;0.65;;;8.20;99.90;;;;;;5371204;26;20725;-74
2024/04/16 00:05:08;;;;;;;3.70;0.55;;;8.20;99.90;;;;;;5400392;26;20281;-75
2024/04/16 00:07:34;;;;;;;2.53;0.52;;;8.10;99.90;;;;;;5447474;26;20734;-74
2024/04/16 00:10:00;;;;;;;6.20;0.80;;;8.10;99.90;;;;;;5443412;26;20287;-74
2024/04/16 00:12:27;;;;;;;1.95;0.60;;;8.10;99.90;;;;;;5447856;26;20237;-74
2024/04/16 00:15:19;;;;;;;1.77;0.60;;;8.00;99.90;;;;;;5447061;26;20592;-74
2024/04/16 00:17:46;;;;;;;1.95;0.63;;;8.10;99.90;;;;;;5449465;26;20541;-74
2024/04/16 00:20:13;;;;;;;2.35;0.60;;;8.10;99.90;;;;;;5447460;26;20241;-74
2024/04/16 00:22:39;;;;;;;3.35;0.70;;;8.10;99.90;;;;;;5448694;26;20234;-74
2024/04/16 00:25:08;;;;;;;2.13;0.60;;;8.20;99.90;;;;;;5446972;26;20279;-74
2024/04/16 00:27:34;;;;;;;1.80;0.70;;;8.20;99.90;;;;;;5468163;26;20260;-74
2024/04/16 00:30:00;;;;;;;3.05;0.70;;;8.30;99.90;;;;;;5449405;26;20309;-74
2024/04/16 00:32:26;;;;;;;2.38;0.75;;;8.30;99.90;;;;;;5448923;26;20280;-74
2024/04/16 00:34:54;;;;;;;2.22;0.65;;;8.40;99.90;;;;;;5440577;26;20242;-74
2024/04/16 00:37:20;;;;;;;3.63;0.60;;;8.40;99.90;;;;;;5445630;26;20229;-74
2024/04/16 00:39:47;;;;;;;2.25;0.80;;;8.40;99.90;;;;;;5449066;26;20280;-74
2024/04/16 00:42:13;;;;;;;2.35;0.70;;;8.50;99.90;;;;;;5446975;26;20282;-74
2024/04/16 00:44:39;;;;;;;2.10;0.60;;;8.50;99.90;;;;;;5444347;26;20306;-74
2024/04/16 00:47:08;;;;;;;1.70;0.63;;;8.50;99.90;;;;;;5441590;26;20260;-74
2024/04/16 00:49:35;;;;;;;5.35;1.50;;;8.60;99.90;;;;;;5446983;26;20262;-73
2024/04/16 00:52:02;;;;;;;2.55;0.70;;;8.60;99.90;;;;;;5448636;26;20222;-74
2024/04/16 00:54:28;;;;;;;3.45;0.70;;;8.60;99.90;;;;;;5444334;26;20601;-74
2024/04/16 00:56:56;;;;;;;1.40;0.60;;;8.60;99.90;;;;;;5448492;26;20788;-74
2024/04/16 00:59:24;;;;;;;1.70;0.50;;;8.60;99.90;;;;;;5448865;26;20226;-74
2024/04/16 01:01:54;;;;;;;2.50;0.80;;;8.60;99.90;;;;;;5448592;26;20601;-74
2024/04/16 01:04:21;;;;;;;1.70;0.55;;;8.70;99.90;;;;;;5445109;26;20337;-74
2024/04/16 01:06:51;;;;;;;1.50;0.60;;;8.70;99.90;;;;;;5429986;26;20261;-73
2024/04/16 01:09:18;;;;;;;2.13;0.70;;;8.70;99.90;;;;;;5419672;26;20270;-74
2024/04/16 01:11:48;;;;;;;1.70;0.68;;;8.70;99.90;;;;;;5445759;26;20264;-74
2024/04/16 01:14:15;;;;;;;2.60;0.73;;;8.70;99.90;;;;;;5453595;26;20337;-74
2024/04/16 01:16:41;;;;;;;3.97;0.90;;;8.80;99.90;;;;;;5439594;26;20235;-74
2024/04/16 01:19:08;;;;;;;1.98;0.70;;;8.70;99.90;;;;;;5411284;26;21054;-74
2024/04/16 01:21:34;;;;;;;3.95;0.60;;;8.70;99.90;;;;;;5467319;26;20226;-74
2024/04/16 01:24:00;;;;;;;3.78;0.70;;;8.70;99.90;;;;;;5439681;26;20286;-74
2024/04/16 01:26:27;;;;;;;2.55;0.60;;;8.70;99.90;;;;;;5447278;26;20243;-74
2024/04/16 01:28:53;;;;;;;2.55;0.70;;;8.70;99.90;;;;;;5435288;26;20264;-74
2024/04/16 01:31:19;;;;;;;2.95;0.75;;;8.70;99.90;;;;;;5451563;26;20270;-73
2024/04/16 01:33:45;;;;;;;2.22;0.60;;;8.70;99.90;;;;;;5441925;26;20302;-75
2024/04/16 01:36:11;;;;;;;2.20;0.73;;;8.60;99.90;;;;;;5442471;26;20253;-73
2024/04/16 01:38:37;;;;;;;5.20;0.82;;;8.60;99.90;;;;;;5435189;26;20748;-73
2024/04/16 01:41:03;;;;;;;4.90;0.90;;;8.50;99.90;;;;;;5459285;26;20289;-73
2024/04/16 01:43:29;;;;;;;3.35;0.80;;;8.50;99.90;;;;;;5448853;26;20286;-73
2024/04/16 01:45:56;;;;;;;1.70;0.80;;;8.40;99.90;;;;;;5449491;26;21020;-74
2024/04/16 01:48:22;;;;;;;3.55;0.70;;;8.40;99.90;;;;;;5451651;26;20235;-74
2024/04/16 01:50:50;;;;;;;2.90;0.70;;;8.40;99.90;;;;;;5458821;26;20309;-74
2024/04/16 01:53:17;;;;;;;4.60;1.20;;;8.30;99.90;;;;;;5408662;26;20273;-74
2024/04/16 01:55:43;;;;;;;1.88;0.70;;;8.30;99.90;;;;;;5437978;26;20230;-74
2024/04/16 01:58:09;;;;;;;2.72;0.80;;;8.30;99.90;;;;;;5451028;26;20289;-74
2024/04/16 02:00:35;;;;;;;2.35;0.80;;;8.20;99.90;;;;;;5447687;26;20225;-74
2024/04/16 02:03:02;;;;;;;3.08;0.77;;;8.20;99.90;;;;;;5450726;26;20715;-74
2024/04/16 02:05:29;;;;;;;3.80;0.70;;;8.20;99.90;;;;;;5442987;26;20294;-73
2024/04/16 02:07:55;;;;;;;2.10;0.98;;;8.30;99.90;;;;;;5439527;26;20229;-73
2024/04/16 02:10:21;;;;;;;2.40;0.85;;;8.30;99.90;;;;;;5451047;26;20268;-74
2024/04/16 02:12:48;;;;;;;1.58;0.65;;;8.30;99.90;;;;;;5450609;26;20270;-73
2024/04/16 02:15:14;;;;;;;2.65;0.70;;;8.30;99.90;;;;;;5418654;26;20233;-73
2024/04/16 02:17:40;;;;;;;2.03;0.85;;;8.30;99.90;;;;;;5450703;26;20288;-74
2024/04/16 02:20:07;;;;;;;4.60;0.80;;;8.30;99.90;;;;;;5443393;26;20262;-74
2024/04/16 02:22:33;;;;;;;5.70;0.98;;;8.30;99.90;;;;;;5434426;26;20298;-73
2024/04/16 02:24:59;;;;;;;3.97;0.85;;;8.30;99.90;;;;;;5442796;26;20269;-74
2024/04/16 02:27:25;;;;;;;2.58;0.63;;;8.30;99.90;;;;;;5447395;26;20278;-74
2024/04/16 02:29:52;;;;;;;3.15;0.90;;;8.20;99.90;;;;;;5448840;26;20233;-73
2024/04/16 02:32:18;;;;;;;6.60;1.00;;;8.20;99.90;;;;;;5450867;26;20273;-74
2024/04/16 02:34:44;;;;;;;2.35;0.80;;;8.20;99.90;;;;;;5449617;26;20229;-74
2024/04/16 02:37:11;;;;;;;5.05;0.98;;;8.20;99.90;;;;;;5450861;26;20273;-74
2024/04/16 02:39:37;;;;;;;5.90;1.00;;;8.20;99.90;;;;;;5442795;26;20227;-75
2024/04/16 02:42:04;;;;;;;2.50;1.17;;;8.10;99.90;;;;;;5442702;26;20261;-73
2024/04/16 02:44:30;;;;;;;3.75;1.10;;;8.10;99.90;;;;;;5449991;26;20225;-74
2024/04/16 02:46:56;;;;;;;1.83;0.80;;;8.00;99.90;;;;;;5452469;26;20222;-74
2024/04/16 02:49:22;;;;;;;2.72;0.80;;;8.00;99.90;;;;;;5450591;26;20221;-74
2024/04/16 02:51:48;;;;;;;2.10;0.65;;;8.00;99.90;;;;;;5469242;26;20289;-74
2024/04/16 02:54:14;;;;;;;2.70;0.90;;;8.00;99.90;;;;;;5447917;26;20260;-74
2024/04/16 02:56:40;;;;;;;2.70;0.93;;;7.90;99.90;;;;;;5480312;26;20607;-74
2024/04/16 02:59:06;;;;;;;2.65;0.98;;;7.90;99.90;;;;;;5457335;26;20257;-74
2024/04/16 03:01:32;;;;;;;3.78;1.00;;;7.90;99.90;;;;;;5450366;26;20277;-75
2024/04/16 03:03:59;;;;;;;2.60;0.70;;;7.90;99.90;;;;;;5448318;26;20628;-74
2024/04/16 03:06:25;;;;;;;4.88;0.70;;;7.90;99.90;;;;;;5449865;26;20277;-74
2024/04/16 03:08:52;;;;;;;2.55;0.65;;;8.00;99.90;;;;;;5441897;26;20238;-74
2024/04/16 03:11:18;;;;;;;5.57;0.88;;;8.00;99.90;;;;;;5442456;26;20245;-74
2024/04/16 03:13:47;;;;;;;2.05;0.70;;;8.00;99.90;;;;;;5441402;26;20280;-75
2024/04/16 03:16:13;;;;;;;3.22;0.98;;;8.10;99.90;;;;;;5450297;26;20230;-74
2024/04/16 03:18:39;;;;;;;3.08;0.98;;;8.10;99.90;;;;;;5449754;26;20301;-74
2024/04/16 03:21:05;;;;;;;5.15;1.35;;;8.20;99.90;;;;;;5453986;26;20279;-74
2024/04/16 03:23:31;;;;;;;3.58;0.90;;;8.20;99.90;;;;;;5452591;26;20285;-74
2024/04/16 03:26:03;;;;;;;4.80;0.80;;;8.30;99.90;;;;;;5450026;26;20229;-74
2024/04/16 03:28:29;;;;;;;3.40;0.88;;;8.30;99.90;;;;;;5449520;26;20299;-74
2024/04/16 03:30:56;;;;;;;2.35;0.70;;;8.30;99.90;;;;;;5449879;26;20325;-74
2024/04/16 03:33:22;;;;;;;4.60;0.88;;;8.30;99.90;;;;;;5447358;26;20234;-74
2024/04/16 03:35:57;;;;;;;2.83;0.77;;;8.30;99.90;;;;;;5449592;26;20403;-74
2024/04/16 03:38:23;;;;;;;4.03;1.08;;;8.30;99.90;;;;;;5449887;26;20626;-74
2024/04/16 03:41:00;;;;;;;3.63;0.90;;;8.30;99.90;;;;;;5447901;26;20229;-74
2024/04/16 03:43:27;;;;;;;2.20;0.73;;;8.30;99.90;;;;;;5449442;26;20299;-74
2024/04/16 03:45:54;;;;;;;3.13;0.80;;;8.30;99.90;;;;;;5438878;26;20285;-74
2024/04/16 03:48:22;;;;;;;3.55;0.90;;;8.30;99.90;;;;;;5450388;26;20229;-75
2024/04/16 03:50:48;;;;;;;3.38;0.82;;;8.30;99.90;;;;;;5400402;26;20262;-73
2024/04/16 03:53:15;;;;;;;3.67;0.80;;;8.30;99.90;;;;;;5443730;26;20268;-74
2024/04/16 03:55:41;;;;;;;9.05;1.00;;;8.30;99.90;;;;;;5451544;26;20230;-74
2024/04/16 03:58:07;;;;;;;5.32;1.23;;;8.30;99.90;;;;;;5453457;26;20230;-74
2024/04/16 04:03:19;;;;;;;4.00;0.90;;;8.40;99.90;;;;;;5447401;26;20598;-74
2024/04/16 04:05:48;;;;;;;8.80;1.10;;;8.40;99.90;;;;;;5426334;26;20337;-74
2024/04/16 04:08:15;;;;;;;5.57;1.30;;;8.40;99.90;;;;;;5437486;26;20281;-74
2024/04/16 04:10:42;;;;;;;4.32;0.95;;;8.40;99.90;;;;;;5438410;26;20620;-73
2024/04/16 04:13:08;;;;;;;2.53;0.82;;;8.40;99.90;;;;;;5408434;26;20257;-74
2024/04/16 04:15:36;;;;;;;5.45;0.80;;;8.40;99.90;;;;;;5447468;26;20217;-74
2024/04/16 04:18:02;;;;;;;4.50;1.02;;;8.40;99.90;;;;;;5452556;26;20224;-74
2024/04/16 04:20:28;;;;;;;2.25;1.00;;;8.40;99.90;;;;;;5438187;26;20268;-74
2024/04/16 04:22:54;;;;;;;5.32;1.05;;;8.40;99.90;;;;;;5427251;26;20226;-74
2024/04/16 04:25:20;;;;;;;3.58;1.20;;;8.40;99.90;;;;;;5449263;26;20792;-77
2024/04/16 04:27:46;;;;;;;4.85;1.00;;;8.40;99.90;;;;;;5431575;26;20288;-75
2024/04/16 04:30:16;;;;;;;3.88;0.98;;;8.40;99.90;;;;;;5437184;26;20740;-74
2024/04/16 04:32:48;;;;;;;3.08;0.95;;;8.50;99.90;;;;;;5437295;26;20280;-75
2024/04/16 04:35:14;;;;;;;5.00;1.33;;;8.40;99.90;;;;;;5448200;26;20234;-75
2024/04/16 04:37:40;;;;;;;3.53;0.90;;;8.40;99.90;;;;;;5445159;26;20256;-74
2024/04/16 04:40:07;;;;;;;2.78;0.85;;;8.40;99.90;;;;;;5457701;26;20288;-74
2024/04/16 04:42:33;;;;;;;6.97;1.33;;;8.40;99.90;;;;;;5448362;26;20226;-74
2024/04/16 04:44:59;;;;;;;2.38;0.80;;;8.40;99.90;;;;;;5445811;26;20326;-74
2024/04/16 04:47:25;;;;;;;2.33;0.90;;;8.40;99.90;;;;;;5446646;26;20234;-74
2024/04/16 04:49:51;;;;;;;3.08;0.90;;;8.40;99.90;;;;;;5446932;26;20270;-74
2024/04/16 04:52:17;;;;;;;4.10;1.00;;;8.40;99.90;;;;;;5411064;26;20238;-74
2024/04/16 04:54:43;;;;;;;4.53;1.00;;;8.40;99.90;;;;;;5448756;26;20802;-74
2024/04/16 04:57:09;;;;;;;3.40;0.82;;;8.40;99.90;;;;;;5448865;26;20301;-74
2024/04/16 04:59:35;;;;;;;3.78;1.92;;;8.40;99.90;;;;;;5420587;26;20726;-75
2024/04/16 05:02:02;;;;;;;5.28;0.90;;;8.40;99.90;;;;;;5452075;26;20290;-74
2024/04/16 05:04:28;;;;;;;2.33;0.80;;;8.40;99.90;;;;;;5450084;26;20237;-75
2024/04/16 05:06:54;;;;;;;2.35;0.88;;;8.40;99.90;;;;;;5451993;26;20245;-73
2024/04/16 05:09:20;;;;;;;3.95;0.95;;;8.40;99.90;;;;;;5452097;26;20289;-73
2024/04/16 05:11:46;;;;;;;2.85;1.20;;;8.40;99.90;;;;;;5450394;26;20272;-73
2024/04/16 05:14:12;;;;;;;2.50;0.90;;;8.40;99.90;;;;;;5451484;26;20230;-74
2024/04/16 05:16:39;;;;;;;1.65;0.90;;;8.40;99.90;;;;;;5445859;26;20314;-73
2024/04/16 05:19:05;;;;;;;5.85;0.90;;;8.40;99.90;;;;;;5439233;26;20261;-73
2024/04/16 05:21:31;;;;;;;2.13;0.70;;;8.40;99.90;;;;;;5433200;26;20264;-74
2024/04/16 05:23:58;;;;;;;4.05;0.77;;;8.40;99.90;;;;;;5438505;26;20269;-74
2024/04/16 05:26:24;;;;;;;2.75;0.70;;;8.40;99.90;;;;;;5450122;26;20265;-74
2024/04/16 05:28:50;;;;;;;2.47;0.82;;;8.40;99.90;;;;;;5449949;26;20229;-74
2024/04/16 05:31:17;;;;;;;2.97;0.70;;;8.50;99.90;;;;;;5438950;26;20257;-74
2024/04/16 05:33:43;;;;;;;2.65;0.90;;;8.50;99.90;;;;;;5436516;26;20225;-74
2024/04/16 05:36:09;;;;;;;2.83;0.75;;;8.60;99.90;;;;;;5451505;26;20268;-73
2024/04/16 05:38:36;;;;;;;1.60;0.70;;;8.80;99.90;;;;;;5449920;26;20225;-74
2024/04/16 05:41:03;;;;;;;2.60;0.70;;;8.90;99.90;;;;;;5480576;26;20279;-74
2024/04/16 05:43:29;;;;;;;3.10;0.70;;;9.00;99.90;;;;;;5449388;26;20339;-74
2024/04/16 05:45:55;;;;;;;1.83;0.70;;;9.10;99.90;;;;;;5453741;26;20565;-73
2024/04/16 05:48:22;;;;;;;2.42;0.70;;;9.20;99.90;;;;;;5442820;26;20230;-72
2024/04/16 05:50:48;;;;;;;4.13;1.20;;;9.30;99.90;;;;;;5451324;26;20267;-73
2024/04/16 05:53:15;;;;;;;5.22;1.33;;;9.30;99.90;;;;;;5443146;26;20768;-74
2024/04/16 05:55:41;;;;;;;3.53;0.80;;;9.40;99.90;;;;;;5434722;26;20281;-74
2024/04/16 05:58:10;;;;;;;2.55;1.00;;;9.50;99.90;;;;;;5451393;26;20301;-74
2024/04/16 06:00:39;;;;;;;2.65;1.00;;;9.60;99.90;;;;;;5446001;26;20230;-74
2024/04/16 06:03:07;;;;;;;2.55;1.30;;;9.70;99.90;;;;;;5450619;26;20573;-74
2024/04/16 06:05:34;;;;;;;2.10;1.65;;;9.80;99.90;;;;;;5445855;26;20230;-74
2024/04/16 06:08:00;;;;;;;2.22;0.80;;;9.80;99.90;;;;;;5436319;26;20281;-73
2024/04/16 06:10:27;;;;;;;5.72;1.08;;;9.80;99.90;;;;;;5449561;26;20234;-74
2024/04/16 06:12:53;;;;;;;3.35;1.73;;;9.80;99.90;;;;;;5439749;26;20225;-74
2024/04/16 06:15:19;;;;;;;2.42;0.85;;;9.90;99.90;;;;;;5450439;26;20298;-74
2024/04/16 06:17:45;;;;;;;4.35;1.10;;;9.90;99.90;;;;;;5439959;26;20298;-73
2024/04/16 06:20:11;;;;;;;5.22;1.33;;;9.80;99.90;;;;;;5450791;26;20796;-74
2024/04/16 06:22:40;;;;;;;2.78;0.73;;;9.80;99.90;;;;;;5447498;26;20237;-73
2024/04/16 06:25:07;;;;;;;4.20;1.08;;;9.80;99.90;;;;;;5448731;26;20272;-73
2024/04/16 06:27:34;;;;;;;2.22;1.05;;;9.70;99.90;;;;;;5450557;26;20225;-73
2024/04/16 06:30:00;;;;;;;2.70;1.00;;;9.70;99.90;;;;;;5450341;26;20229;-73
2024/04/16 06:32:27;;;;;;;5.53;1.00;;;9.70;99.90;;;;;;5450598;26;20225;-73
2024/04/16 06:34:53;;;;;;;1.63;0.80;;;9.70;99.90;;;;;;5447836;26;20234;-73
2024/04/16 06:37:19;;;;;;;4.40;1.08;;;9.70;99.90;;;;;;5445895;26;20269;-73
2024/04/16 06:39:46;;;;;;;3.35;1.25;;;9.70;99.90;;;;;;5450230;26;20751;-73
2024/04/16 06:42:12;;;;;;;5.00;1.10;;;9.70;99.90;;;;;;5448650;26;20653;-74
2024/04/16 06:44:38;;;;;;;4.10;1.30;;;9.60;99.90;;;;;;5449696;26;20268;-73
2024/04/16 06:47:04;;;;;;;2.97;1.10;;;9.60;99.90;;;;;;5448532;26;20222;-73
2024/04/16 06:49:31;;;;;;;5.63;1.30;;;9.60;99.90;;;;;;5447926;26;20225;-73
2024/04/16 06:51:57;;;;;;;3.97;1.10;;;9.50;99.90;;;;;;5448627;26;20233;-74
2024/04/16 06:54:23;;;;;;;3.80;1.00;;;9.50;99.90;;;;;;5450116;26;20654;-74
2024/04/16 06:56:49;;;;;;;6.93;1.05;;;9.40;99.90;;;;;;5450294;26;20276;-73
2024/04/16 06:59:15;;;;;;;4.55;1.30;;;9.30;99.90;;;;;;5479542;26;20620;-73
2024/04/16 07:01:41;;;;;;;1.98;1.10;;;9.30;99.90;;;;;;5450789;26;20222;-73
2024/04/16 07:04:11;;;;;;;2.28;1.27;;;9.20;99.90;;;;;;5450963;26;20645;-73
2024/04/16 07:06:37;;;;;;;3.70;1.10;;;9.10;99.90;;;;;;5451016;26;20268;-72
2024/04/16 07:09:03;;;;;;;5.22;1.38;;;9.10;99.90;;;;;;5419382;26;20266;-73
2024/04/16 07:11:29;;;;;;;2.08;1.27;;;9.00;99.90;;;;;;5450592;26;20566;-76
2024/04/16 07:13:55;;;;;;;5.53;1.20;;;8.90;99.90;;;;;;5451591;26;20497;-76
2024/04/16 07:16:22;;;;;;;4.35;1.10;;;8.80;99.90;;;;;;5452918;26;20285;-76
2024/04/16 07:18:48;;;;;;;5.63;1.85;;;8.80;99.90;;;;;;5462224;26;20297;-76
2024/04/16 07:21:15;;;;;;;4.20;0.80;;;8.70;99.90;;;;;;5433614;26;20241;-76
2024/04/16 07:23:41;;;;;;;2.92;1.00;;;8.70;99.90;;;;;;5456607;26;20641;-75
2024/04/16 07:26:07;;;;;;;2.92;0.90;;;8.70;99.90;;;;;;5441883;26;20559;-75
2024/04/16 07:28:36;;;;;;;1.70;0.73;;;8.60;99.90;;;;;;5453095;26;20260;-77
2024/04/16 07:31:02;;;;;;;4.43;1.20;;;8.60;99.90;;;;;;5465267;26;20802;-75
2024/04/16 07:33:30;;;;;;;1.75;0.95;;;8.50;99.90;;;;;;5466145;26;20607;-75
2024/04/16 07:35:56;;;;;;;1.70;0.70;;;8.40;99.90;;;;;;5458391;26;20325;-75
2024/04/16 07:38:22;;;;;;;3.40;1.00;;;8.40;99.90;;;;;;5448323;26;20326;-74
2024/04/16 07:40:55;;;;;;;1.70;0.70;;;8.40;99.90;;;;;;5441832;26;20229;-75
2024/04/16 07:43:26;;;;;;;1.70;0.75;;;8.40;99.90;;;;;;5432365;26;20234;-74
2024/04/16 07:45:52;;;;;;;1.75;0.80;;;8.30;99.90;;;;;;5446384;26;20275;-74
2024/04/16 07:48:18;;;;;;;1.92;0.70;;;8.30;99.90;;;;;;5478047;26;20699;-74
2024/04/16 07:50:48;;;;;;;1.83;0.80;;;8.30;99.90;;;;;;5446095;26;20221;-74
2024/04/16 07:53:15;;;;;;;4.25;1.33;;;8.30;99.90;;;;;;5467706;26;20255;-75
2024/04/16 07:55:41;;;;;;;1.85;0.98;;;8.40;99.90;;;;;;5443158;26;20222;-75
2024/04/16 07:58:07;;;;;;;1.92;0.85;;;8.40;99.90;;;;;;5477482;26;20616;-74
2024/04/16 08:00:34;;;;;;;1.30;0.70;;;8.40;99.90;;;;;;5446755;26;20631;-75
2024/04/16 08:03:00;;;;;;;1.95;0.90;;;8.40;99.90;;;;;;5447037;26;20222;-75
2024/04/16 08:05:27;;;;;;;1.80;0.60;;;8.40;99.90;;;;;;5449867;26;20326;-75
2024/04/16 08:07:53;;;;;;;2.50;0.88;;;8.50;99.90;;;;;;5477457;26;20834;-75
2024/04/16 08:10:19;;;;;;;2.40;0.90;;;8.50;99.90;;;;;;5448707;26;20268;-72
2024/04/16 08:12:45;;;;;;;3.40;0.90;;;8.50;99.90;;;;;;5443199;26;20262;-72
2024/04/16 08:15:11;;;;;;;1.52;0.82;;;8.60;99.90;;;;;;5477687;26;20230;-72
2024/04/16 08:17:38;;;;;;;1.90;0.75;;;8.60;99.90;;;;;;5447974;26;20289;-72
2024/04/16 08:20:05;;;;;;;3.00;1.13;;;8.70;99.90;;;;;;5441489;26;20247;-73
2024/04/16 08:22:31;;;;;;;1.65;1.02;;;8.80;99.90;;;;;;5441820;26;20768;-72
2024/04/16 08:24:57;;;;;;;3.53;0.80;;;8.90;99.90;;;;;;5446414;26;20264;-73
2024/04/16 08:27:23;;;;;;;1.75;0.93;;;8.90;99.90;;;;;;5450534;26;20290;-73
2024/04/16 08:29:51;;;;;;;3.55;1.00;;;9.00;99.90;;;;;;5456844;26;20221;-73
2024/04/16 08:32:21;;;;;;;2.40;0.80;;;9.00;99.90;;;;;;5424901;26;20279;-73
2024/04/16 08:34:47;;;;;;;1.85;0.98;;;9.20;99.90;;;;;;5455856;26;20591;-73
2024/04/16 08:37:13;;;;;;;1.83;0.73;;;9.20;99.90;;;;;;5455084;26;20225;-73
2024/04/16 08:39:40;;;;;;;3.78;1.45;;;9.30;99.90;;;;;;5454690;26;20245;-73
2024/04/16 08:42:08;;;;;;;2.70;1.00;;;9.40;99.90;;;;;;5454751;26;20281;-72
2024/04/16 08:44:35;;;;;;;2.35;0.80;;;9.50;99.90;;;;;;5450405;26;20230;-73
2024/04/16 08:47:01;;;;;;;2.22;0.85;;;9.50;99.90;;;;;;5424875;26;20244;-72
2024/04/16 08:49:29;;;;;;;2.13;1.00;;;9.60;99.90;;;;;;5454884;26;20238;-73
2024/04/16 08:51:59;;;;;;;2.20;0.93;;;9.70;99.90;;;;;;5454659;26;20229;-73
2024/04/16 08:54:27;;;;;;;2.80;1.00;;;9.70;99.90;;;;;;5456101;26;20229;-73
2024/04/16 08:56:54;;;;;;;2.45;1.50;;;9.80;99.90;;;;;;5448607;26;20700;-73
2024/04/16 08:59:20;;;;;;;3.78;1.70;;;9.90;99.90;;;;;;5459694;26;20237;-73
2024/04/16 09:01:50;;;;;;;2.42;1.13;;;10.00;99.90;;;;;;5454315;26;20226;-72
2024/04/16 09:04:16;;;;;;;2.53;0.90;;;10.10;99.90;;;;;;5455787;26;20233;-73
2024/04/16 09:06:44;;;;;;;3.83;1.10;;;10.20;99.90;;;;;;5484770;26;20618;-73
2024/04/16 09:09:10;;;;;;;3.20;1.10;;;10.40;99.90;;;;;;5448574;26;20250;-73
2024/04/16 09:11:37;;;;;;;3.90;0.90;;;10.50;99.90;;;;;;5453518;26;20276;-72
2024/04/16 09:14:03;;;;;;;2.33;0.93;;;10.70;99.90;;;;;;5455547;26;20289;-73
2024/04/16 09:16:31;;;;;;;2.78;1.25;;;10.80;99.90;;;;;;5423916;26;20334;-73
2024/04/16 09:19:13;;;;;;;4.22;1.05;;;10.80;99.90;;;;;;5454000;26;20229;-73
2024/04/16 09:21:39;;;;;;;3.50;1.00;;;10.90;99.90;;;;;;5423850;26;20273;-72
2024/04/16 09:24:06;;;;;;;2.80;1.33;;;11.00;99.90;;;;;;5447323;26;20246;-73
2024/04/16 09:26:36;;;;;;;3.50;1.33;;;11.00;99.90;;;;;;5422357;26;20375;-73
2024/04/16 09:29:03;;;;;;;3.15;1.00;;;11.10;99.90;;;;;;5449228;26;20234;-73
2024/04/16 09:31:30;;;;;;;3.80;1.20;;;11.20;99.90;;;;;;5455915;26;20229;-73
2024/04/16 09:34:11;;;;;;;4.68;1.25;;;11.20;99.90;;;;;;5444994;26;20609;-73
2024/04/16 09:36:48;;;;;;;4.20;1.13;;;11.20;99.90;;;;;;5456069;26;20260;-73
2024/04/16 09:39:23;;;;;;;2.50;1.10;;;11.30;99.90;;;;;;5451728;26;20261;-73
2024/04/16 09:41:50;;;;;;;4.32;1.25;;;11.40;99.90;;;;;;5479977;26;20296;-73
2024/04/16 09:44:17;;;;;;;2.20;0.90;;;11.40;99.90;;;;;;5443408;26;20302;-73
2024/04/16 09:46:47;;;;;;;3.78;1.15;;;11.50;99.90;;;;;;5449767;26;20225;-72
2024/04/16 09:49:14;;;;;;;5.20;1.45;;;11.50;99.90;;;;;;5480172;26;20259;-73
2024/04/16 09:51:41;;;;;;;4.82;1.20;;;11.60;99.90;;;;;;5449442;26;20319;-73
2024/04/16 09:54:12;;;;;;;2.67;0.90;;;11.80;99.90;;;;;;5449153;26;20591;-72
2024/04/16 09:56:39;;;;;;;5.10;1.13;;;12.00;99.90;;;;;;5451042;26;20272;-73
2024/04/16 09:59:05;;;;;;;7.93;1.58;;;12.20;99.90;;;;;;5449955;26;20257;-72
2024/04/16 10:01:33;;;;;;;5.55;1.40;;;12.30;99.90;;;;;;5451787;26;20285;-72
2024/04/16 10:04:00;;;;;;;4.25;1.05;;;12.40;99.90;;;;;;5450521;26;20276;-73
2024/04/16 10:06:27;;;;;;;2.45;0.80;;;12.40;99.90;;;;;;5451436;26;20285;-72
2024/04/16 10:08:54;;;;;;;5.55;0.93;;;12.50;99.90;;;;;;5444977;26;20222;-72
2024/04/16 10:11:22;;;;;;;5.35;1.35;;;12.50;99.90;;;;;;5437734;26;20991;-72
2024/04/16 10:13:48;;;;;;;4.63;1.00;;;12.60;99.90;;;;;;5446109;26;20230;-72
2024/04/16 10:16:17;;;;;;;4.53;1.52;;;12.60;99.90;;;;;;5446299;26;20256;-73
2024/04/16 10:18:57;;;;;;;4.65;1.10;;;12.90;99.90;;;;;;5476110;26;20273;-72
2024/04/16 10:21:27;;;;;;;6.80;1.03;;;13.10;99.90;;;;;;5445671;26;20260;-73
2024/04/16 10:24:03;;;;;;;3.15;0.88;;;13.30;99.90;;;;;;5449259;26;21144;-72
2024/04/16 10:26:35;;;;;;;3.70;1.10;;;13.40;99.90;;;;;;5448346;26;20244;-73
2024/04/16 10:29:01;;;;;;;2.60;1.02;;;13.50;99.90;;;;;;5449138;26;20584;-72
2024/04/16 10:31:38;;;;;;;2.45;0.93;;;13.60;99.90;;;;;;5436948;26;20639;-72
2024/04/16 10:34:04;;;;;;;2.17;0.90;;;13.70;99.90;;;;;;5435358;26;20599;-72
2024/04/16 10:36:32;;;;;;;5.30;0.93;;;13.60;99.90;;;;;;5454004;26;20595;-72
2024/04/16 10:38:58;;;;;;;4.18;0.95;;;13.50;99.90;;;;;;5450854;26;20570;-72
2024/04/16 10:41:28;;;;;;;2.53;0.80;;;13.50;99.90;;;;;;5451196;26;20230;-72
2024/04/16 10:43:56;;;;;;;12.17;1.20;;;13.50;99.90;;;;;;5448259;26;20293;-73
2024/04/16 10:46:24;;;;;;;3.00;1.00;;;13.50;99.90;;;;;;5446779;26;21326;-74
2024/04/16 10:48:52;;;;;;;5.70;1.08;;;13.50;99.90;;;;;;5450830;26;20531;-73
2024/04/16 10:51:18;;;;;;;3.00;0.80;;;13.50;99.90;;;;;;5451020;26;20237;-73
2024/04/16 10:53:44;;;;;;;5.77;1.00;;;13.50;99.90;;;;;;5448178;26;20865;-73
2024/04/16 10:56:11;;;;;;;2.20;0.93;;;13.60;99.90;;;;;;5450529;26;20620;-73
2024/04/16 10:58:37;;;;;;;4.37;1.00;;;13.60;99.90;;;;;;5451063;26;20221;-74
2024/04/16 11:01:04;;;;;;;3.73;0.83;;;13.70;99.90;;;;;;5450699;26;20613;-73
2024/04/16 11:03:34;;;;;;;4.00;1.10;;;13.80;99.90;;;;;;5453988;26;20550;-73
2024/04/16 11:06:00;;;;;;;6.63;1.33;;;14.00;99.90;;;;;;5450006;26;20532;-74
2024/04/16 11:08:26;;;;;;;4.20;1.00;;;14.10;99.90;;;;;;5450438;26;20595;-73
2024/04/16 11:10:53;;;;;;;5.97;0.90;;;14.20;99.90;;;;;;5436596;26;20525;-74
2024/04/16 11:13:19;;;;;;;3.50;1.00;;;14.30;99.90;;;;;;5448343;26;20604;-73
2024/04/16 11:15:45;;;;;;;2.57;1.00;;;14.30;99.90;;;;;;5412959;26;20601;-74
2024/04/16 11:18:12;;;;;;;3.13;1.03;;;14.40;99.90;;;;;;5448633;26;20572;-73
2024/04/16 11:20:40;;;;;;;3.73;1.20;;;14.30;99.90;;;;;;5418652;26;20611;-73
2024/04/16 11:23:06;;;;;;;2.80;1.00;;;14.30;99.90;;;;;;5417954;26;20543;-73
2024/04/16 11:25:33;;;;;;;5.30;0.90;;;14.10;99.90;;;;;;5448340;26;20583;-73
2024/04/16 11:28:00;;;;;;;3.35;1.10;;;14.00;99.90;;;;;;5446601;26;20516;-73
2024/04/16 11:30:27;;;;;;;4.13;0.93;;;13.80;99.90;;;;;;5432191;26;20230;-74
2024/04/16 11:32:53;;;;;;;6.40;0.90;;;13.50;99.90;;;;;;5475997;26;20580;-73
2024/04/16 11:35:21;;;;;;;2.47;0.70;;;13.20;99.90;;;;;;5448182;26;20241;-73
2024/04/16 11:37:47;;;;;;;3.30;0.70;;;12.90;99.90;;;;;;5450125;26;20237;-73
2024/04/16 11:40:14;;;;;;;3.13;0.70;;;12.50;99.90;;;;;;5478750;26;20260;-73
2024/04/16 11:42:40;;;;;;;2.30;0.50;;;12.30;99.90;;;;;;5448361;26;20230;-73
2024/04/16 11:45:07;;;;;;;2.08;0.60;;;12.00;99.90;;;;;;5447022;26;20230;-73
2024/04/16 11:47:36;;;;;;;2.03;0.60;;;11.80;99.90;;;;;;5450352;26;20226;-73
2024/04/16 11:50:03;;;;;;;2.00;0.82;;;11.50;99.90;;;;;;5448144;26;20230;-73
2024/04/16 11:52:29;;;;;;;4.95;0.80;;;11.40;99.90;;;;;;5478448;26;20268;-72
2024/04/16 11:54:55;;;;;;;1.50;0.57;;;11.20;99.90;;;;;;5448919;26;20225;-72
2024/04/16 11:57:21;;;;;;;1.98;0.57;;;11.00;99.90;;;;;;5448216;26;20569;-73
2024/04/16 11:59:49;;;;;;;4.07;1.75;;;10.90;99.90;;;;;;5449843;26;20326;-73
2024/04/16 12:02:15;;;;;;;4.95;2.15;;;10.80;99.90;;;;;;5448888;26;20272;-73
2024/04/16 12:04:41;;;;;;;3.72;1.10;;;10.80;99.90;;;;;;5455058;26;20289;-73
2024/04/16 12:07:07;;;;;;;2.25;0.80;;;10.70;99.90;;;;;;5446994;26;20630;-73
2024/04/16 12:09:33;;;;;;;2.00;0.80;;;10.70;99.90;;;;;;5478008;26;20245;-73
2024/04/16 12:12:00;;;;;;;4.30;0.60;;;10.70;99.90;;;;;;5446747;26;20314;-73
2024/04/16 12:14:27;;;;;;;2.83;0.60;;;10.70;99.90;;;;;;5446789;26;20233;-73
2024/04/16 12:16:53;;;;;;;1.60;0.70;;;10.70;99.90;;;;;;5436609;26;20242;-72
2024/04/16 12:19:19;;;;;;;2.20;0.70;;;10.70;99.90;;;;;;5447870;26;20289;-73
2024/04/16 12:21:45;;;;;;;2.75;0.65;;;10.80;99.90;;;;;;5449723;26;20346;-73
2024/04/16 12:24:11;;;;;;;2.47;0.88;;;10.90;99.90;;;;;;5446858;26;20233;-73
2024/04/16 12:26:38;;;;;;;2.95;0.80;;;11.10;99.90;;;;;;5450138;26;20237;-73
2024/04/16 12:29:05;;;;;;;2.05;0.60;;;11.40;99.90;;;;;;5478438;26;20264;-74
2024/04/16 12:31:31;;;;;;;4.38;0.80;;;11.60;99.90;;;;;;5419033;26;20571;-73
2024/04/16 12:34:00;;;;;;;4.45;0.70;;;11.90;99.90;;;;;;5462820;26;20680;-73
2024/04/16 12:36:27;;;;;;;1.50;0.70;;;12.10;99.90;;;;;;5448240;26;20615;-73
2024/04/16 12:38:53;;;;;;;4.10;0.80;;;12.40;99.90;;;;;;5449338;26;20547;-73
2024/04/16 12:41:19;;;;;;;2.40;0.80;;;12.50;99.90;;;;;;5448173;26;20260;-73
2024/04/16 12:43:45;;;;;;;4.25;1.17;;;12.70;99.90;;;;;;5448505;26;20285;-73
2024/04/16 12:46:11;;;;;;;2.67;0.73;;;12.90;99.90;;;;;;5442710;26;20298;-73
2024/04/16 12:48:37;;;;;;;3.80;0.83;;;12.90;99.90;;;;;;5445884;26;20612;-73
2024/04/16 12:51:03;;;;;;;3.72;0.98;;;13.10;99.90;;;;;;5446899;26;20607;-73
2024/04/16 12:53:31;;;;;;;1.70;0.90;;;13.10;99.90;;;;;;5439781;26;20238;-73